Time;durP1;ratioP1;P1;durP2;ratioP2;P2;SDS_P1;SDS_P2;PMS_P1;PMS_P2;Temp;Humidity;BMP_temperature;BMP_pressure;BME280_temperature;BME280_humidity;BME280_pressure;Samples;Min_cycle;Max_cycle;Signal;HPM_P1;HPM_P2
2023/05/19 00:01:12;;;;;;;;;;;13.30;99.90;;;;;;5073559;28;20357;-85
2023/05/19 00:03:47;;;;;;;;;;;13.30;99.90;;;;;;5051779;28;19920;-85
2023/05/19 00:06:15;;;;;;;;;;;13.20;99.90;;;;;;5074448;28;19925;-85
2023/05/19 00:08:41;;;;;;;;;;;13.20;99.90;;;;;;5061917;28;19924;-87
2023/05/19 00:11:08;;;;;;;;;;;13.20;99.90;;;;;;5063936;28;20351;-86
2023/05/19 00:13:35;;;;;;;;;;;13.10;99.90;;;;;;5073145;28;19967;-86
2023/05/19 00:16:01;;;;;;;;;;;13.10;99.90;;;;;;5067679;28;19964;-86
2023/05/19 00:18:29;;;;;;;;;;;13.10;99.90;;;;;;5056267;28;20003;-86
2023/05/19 00:20:55;;;;;;;;;;;13.10;99.90;;;;;;5066881;28;19920;-85
2023/05/19 00:23:22;;;;;;;;;;;13.00;99.90;;;;;;5062314;28;19954;-87
2023/05/19 00:25:49;;;;;;;;;;;13.00;99.90;;;;;;5077813;28;20368;-82
2023/05/19 00:28:15;;;;;;;;;;;13.00;99.90;;;;;;5080385;28;20319;-84
2023/05/19 00:30:42;;;;;;;;;;;12.90;99.90;;;;;;5063973;28;20024;-85
2023/05/19 00:33:09;;;;;;;;;;;12.90;99.90;;;;;;5060494;28;19920;-83
2023/05/19 00:35:35;;;;;;;;;;;12.90;99.90;;;;;;5078550;28;20157;-82
2023/05/19 00:38:02;;;;;;;;;;;12.80;99.90;;;;;;5061443;28;19924;-83
2023/05/19 00:40:29;;;;;;;;;;;12.80;99.90;;;;;;5061735;28;19927;-81
2023/05/19 00:42:57;;;;;;;;;;;12.80;99.90;;;;;;5054258;28;19987;-84
2023/05/19 00:45:24;;;;;;;;;;;12.80;99.90;;;;;;5053709;28;19972;-83
2023/05/19 00:47:50;;;;;;;;;;;12.70;99.90;;;;;;5054222;28;19921;-82
2023/05/19 00:50:17;;;;;;;;;;;12.70;99.90;;;;;;5074867;28;19924;-82
2023/05/19 00:52:44;;;;;;;;;;;12.80;99.90;;;;;;5077341;28;19920;-83
2023/05/19 00:55:10;;;;;;;;;;;12.80;99.90;;;;;;5073907;28;19920;-82
2023/05/19 00:57:37;;;;;;;;;;;12.80;99.90;;;;;;5066629;28;19928;-83
2023/05/19 01:00:04;;;;;;;;;;;12.80;99.90;;;;;;5051808;28;19920;-83
2023/05/19 01:02:31;;;;;;;;;;;12.80;99.90;;;;;;5048466;28;19920;-82
2023/05/19 01:04:58;;;;;;;;;;;12.80;99.90;;;;;;5075612;28;19920;-83
2023/05/19 01:07:26;;;;;;;;;;;12.90;99.90;;;;;;5075229;28;19921;-82
2023/05/19 01:09:52;;;;;;;;;;;12.90;99.90;;;;;;5056514;28;19925;-83
2023/05/19 01:12:19;;;;;;;;;;;12.90;99.90;;;;;;5053007;28;20391;-83
2023/05/19 01:14:46;;;;;;;;;;;12.90;99.90;;;;;;5062505;28;19924;-83
2023/05/19 01:17:20;;;;;;;;;;;13.00;99.90;;;;;;5051828;28;19927;-83
2023/05/19 01:19:52;;;;;;;;;;;13.00;99.90;;;;;;5055223;28;20304;-83
2023/05/19 01:22:22;;;;;;;;;;;13.00;99.90;;;;;;5074755;28;19920;-82
2023/05/19 01:24:58;;;;;;;;;;;13.00;99.90;;;;;;5067562;28;19944;-83
2023/05/19 01:27:35;;;;;;;;;;;13.10;99.90;;;;;;5054040;28;19921;-83
2023/05/19 01:30:24;;;;;;;;;;;13.10;99.90;;;;;;5064027;28;20354;-83
2023/05/19 01:32:55;;;;;;;;;;;13.10;99.90;;;;;;5070405;28;19943;-83
2023/05/19 01:35:23;;;;;;;;;;;13.10;99.90;;;;;;5073108;28;19947;-83
2023/05/19 01:37:53;;;;;;;;;;;13.10;99.90;;;;;;5077446;28;19920;-81
2023/05/19 01:40:20;;;;;;;;;;;13.10;99.90;;;;;;5069887;28;19925;-81
2023/05/19 01:42:47;;;;;;;;;;;13.10;99.90;;;;;;5072930;28;19920;-84
2023/05/19 01:45:14;;;;;;;;;;;13.10;99.90;;;;;;5052755;28;19946;-81
2023/05/19 01:47:42;;;;;;;;;;;13.10;99.90;;;;;;5042388;28;19968;-83
2023/05/19 01:50:09;;;;;;;;;;;13.10;99.90;;;;;;5073211;28;20368;-83
2023/05/19 01:52:36;;;;;;;;;;;13.20;99.90;;;;;;5076928;28;19920;-83
2023/05/19 01:55:03;;;;;;;;;;;13.20;99.90;;;;;;5071626;28;19951;-82
2023/05/19 01:57:49;;;;;;;;;;;13.20;99.90;;;;;;5073168;28;19974;-82
2023/05/19 02:00:34;;;;;;;;;;;13.20;99.90;;;;;;5067776;28;19924;-82
2023/05/19 02:03:03;;;;;;;;;;;13.20;99.90;;;;;;5052314;28;19921;-83
2023/05/19 02:05:35;;;;;;;;;;;13.20;99.90;;;;;;5056858;28;19926;-83
2023/05/19 02:08:17;;;;;;;;;;;13.20;99.90;;;;;;5075175;28;20354;-83
2023/05/19 02:10:49;;;;;;;;;;;13.20;99.90;;;;;;5077801;28;19921;-83
2023/05/19 02:13:17;;;;;;;;;;;13.20;99.90;;;;;;5079173;28;19943;-83
2023/05/19 02:15:44;;;;;;;;;;;13.20;99.90;;;;;;5058682;28;19924;-83
2023/05/19 02:18:12;;;;;;;;;;;13.10;99.90;;;;;;5048140;28;19928;-84
2023/05/19 02:20:39;;;;;;;;;;;13.10;99.90;;;;;;5073578;28;19959;-83
2023/05/19 02:23:06;;;;;;;;;;;13.10;99.90;;;;;;5078915;28;19927;-83
2023/05/19 02:25:32;;;;;;;;;;;13.10;99.90;;;;;;5055986;28;19924;-83
2023/05/19 02:27:59;;;;;;;;;;;13.10;99.90;;;;;;5072061;28;19920;-83
2023/05/19 02:30:26;;;;;;;;;;;13.00;99.90;;;;;;5075049;28;19943;-82
2023/05/19 02:32:53;;;;;;;;;;;13.00;99.90;;;;;;5053854;28;20335;-82
2023/05/19 02:35:20;;;;;;;;;;;13.00;99.90;;;;;;5072449;28;19961;-82
2023/05/19 02:37:46;;;;;;;;;;;13.00;99.90;;;;;;5056869;28;19928;-83
2023/05/19 02:40:13;;;;;;;;;;;13.00;99.90;;;;;;5059710;28;20411;-84
2023/05/19 02:42:41;;;;;;;;;;;12.90;99.90;;;;;;5054814;28;19960;-82
2023/05/19 02:45:07;;;;;;;;;;;12.90;99.90;;;;;;5068385;28;19920;-82
2023/05/19 02:47:34;;;;;;;;;;;12.90;99.90;;;;;;5056959;28;19952;-83
2023/05/19 02:50:03;;;;;;;;;;;12.90;99.90;;;;;;5076317;28;19924;-81
2023/05/19 02:52:30;;;;;;;;;;;12.80;99.90;;;;;;5057640;28;19920;-83
2023/05/19 02:54:56;;;;;;;;;;;12.80;99.90;;;;;;5060243;28;19991;-83
2023/05/19 02:57:23;;;;;;;;;;;12.80;99.90;;;;;;5056832;28;19962;-83
2023/05/19 02:59:49;;;;;;;;;;;12.80;99.90;;;;;;5054768;28;19924;-82
2023/05/19 03:02:16;;;;;;;;;;;12.80;99.90;;;;;;5072802;28;19920;-84
2023/05/19 03:04:44;;;;;;;;;;;12.70;99.90;;;;;;5075551;28;19967;-83
2023/05/19 03:07:12;;;;;;;;;;;12.70;99.90;;;;;;5056816;28;19921;-83
2023/05/19 03:09:39;;;;;;;;;;;12.70;99.90;;;;;;5063573;28;19920;-82
2023/05/19 03:12:06;;;;;;;;;;;12.70;99.90;;;;;;5063286;28;20008;-83
2023/05/19 03:14:33;;;;;;;;;;;12.60;99.90;;;;;;5075412;28;19974;-83
2023/05/19 03:17:00;;;;;;;;;;;12.60;99.90;;;;;;5058391;28;19978;-83
2023/05/19 03:19:27;;;;;;;;;;;12.60;99.90;;;;;;5079760;28;19967;-84
2023/05/19 03:21:55;;;;;;;;;;;12.60;99.90;;;;;;5079053;28;19920;-83
2023/05/19 03:24:21;;;;;;;;;;;12.60;99.90;;;;;;5070835;28;19924;-83
2023/05/19 03:26:49;;;;;;;;;;;12.60;99.90;;;;;;5071207;28;20380;-82
2023/05/19 03:29:15;;;;;;;;;;;12.60;99.90;;;;;;5051176;28;19967;-83
2023/05/19 03:31:42;;;;;;;;;;;12.60;99.90;;;;;;5063421;28;19925;-80
2023/05/19 03:34:09;;;;;;;;;;;12.60;99.90;;;;;;5074711;28;19927;-82
2023/05/19 03:36:38;;;;;;;;;;;12.70;99.90;;;;;;5072501;28;19920;-82
2023/05/19 03:39:05;;;;;;;;;;;12.60;99.90;;;;;;5082111;28;19920;-83
2023/05/19 03:41:32;;;;;;;;;;;12.60;99.90;;;;;;5047255;28;19955;-83
2023/05/19 03:43:59;;;;;;;;;;;12.60;99.90;;;;;;5072354;28;19931;-82
2023/05/19 03:46:25;;;;;;;;;;;12.60;99.90;;;;;;5065791;28;19986;-83
2023/05/19 03:48:52;;;;;;;;;;;12.60;99.90;;;;;;5081178;28;19928;-82
2023/05/19 03:51:19;;;;;;;;;;;12.60;99.90;;;;;;5059405;28;19920;-83
2023/05/19 03:53:45;;;;;;;;;;;12.50;99.90;;;;;;5074691;28;19929;-82
2023/05/19 03:56:12;;;;;;;;;;;12.40;99.90;;;;;;5074873;28;19924;-83
2023/05/19 03:58:43;;;;;;;;;;;12.40;99.90;;;;;;5063785;28;20341;-82
2023/05/19 04:01:10;;;;;;;;;;;12.40;99.90;;;;;;5077207;28;19920;-84
2023/05/19 04:03:37;;;;;;;;;;;12.30;99.90;;;;;;5061768;28;19931;-82
2023/05/19 04:06:04;;;;;;;;;;;12.30;99.90;;;;;;5063876;28;19927;-82
2023/05/19 04:08:31;;;;;;;;;;;12.30;99.90;;;;;;5059866;28;20433;-83
2023/05/19 04:10:57;;;;;;;;;;;12.30;99.90;;;;;;5074602;28;19927;-82
2023/05/19 04:13:24;;;;;;;;;;;12.30;99.90;;;;;;5063811;28;19920;-83
2023/05/19 04:15:51;;;;;;;;;;;12.30;99.90;;;;;;5072331;28;19966;-84
2023/05/19 04:18:18;;;;;;;;;;;12.30;99.90;;;;;;5079553;28;20019;-83
2023/05/19 04:20:44;;;;;;;;;;;12.30;99.90;;;;;;5076854;28;19978;-83
2023/05/19 04:23:11;;;;;;;;;;;12.30;99.90;;;;;;5080045;28;19924;-83
2023/05/19 04:25:39;;;;;;;;;;;12.20;99.90;;;;;;5071271;28;19920;-82
2023/05/19 04:28:06;;;;;;;;;;;12.20;99.90;;;;;;5074131;28;19924;-83
2023/05/19 04:30:33;;;;;;;;;;;12.10;99.90;;;;;;5064270;28;19924;-82
2023/05/19 04:33:03;;;;;;;;;;;12.10;99.90;;;;;;5052458;28;19988;-83
2023/05/19 04:35:30;;;;;;;;;;;12.10;99.90;;;;;;5065368;28;19946;-82
2023/05/19 04:37:57;;;;;;;;;;;12.10;99.90;;;;;;5058395;28;19927;-83
2023/05/19 04:40:23;;;;;;;;;;;12.10;99.90;;;;;;5079378;28;19928;-84
2023/05/19 04:42:51;;;;;;;;;;;12.10;99.90;;;;;;5077061;28;19921;-86
2023/05/19 04:45:17;;;;;;;;;;;12.10;99.90;;;;;;5073972;28;19924;-84
2023/05/19 04:47:46;;;;;;;;;;;12.10;99.90;;;;;;5074619;28;20363;-85
2023/05/19 04:50:13;;;;;;;;;;;12.10;99.90;;;;;;5082480;28;19920;-85
2023/05/19 04:52:46;;;;;;;;;;;12.10;99.90;;;;;;5079930;28;20399;-87
2023/05/19 04:55:13;;;;;;;;;;;12.10;99.90;;;;;;5060416;28;19956;-86
2023/05/19 04:57:39;;;;;;;;;;;12.10;99.90;;;;;;5071823;28;19928;-85
2023/05/19 05:00:08;;;;;;;;;;;12.20;99.90;;;;;;5052998;28;20668;-84
2023/05/19 05:02:35;;;;;;;;;;;12.30;99.90;;;;;;5081467;28;19924;-81
2023/05/19 05:05:03;;;;;;;;;;;12.30;99.90;;;;;;5086746;28;20542;-81
2023/05/19 05:07:29;;;;;;;;;;;12.30;99.90;;;;;;5080550;28;20387;-84
2023/05/19 05:09:58;;;;;;;;;;;12.30;99.90;;;;;;5060785;28;20011;-84
2023/05/19 05:12:25;;;;;;;;;;;12.30;99.90;;;;;;5073465;28;19924;-83
2023/05/19 05:14:52;;;;;;;;;;;12.30;99.90;;;;;;5058760;28;19921;-83
2023/05/19 05:17:19;;;;;;;;;;;12.30;99.90;;;;;;5073148;28;19920;-83
2023/05/19 05:19:45;;;;;;;;;;;12.20;99.90;;;;;;5081083;28;19920;-83
2023/05/19 05:22:12;;;;;;;;;;;12.20;99.90;;;;;;5079486;28;19920;-83
2023/05/19 05:24:39;;;;;;;;;;;12.30;99.90;;;;;;5058332;28;20390;-83
2023/05/19 05:27:07;;;;;;;;;;;12.20;99.90;;;;;;5067306;28;19925;-82
2023/05/19 05:29:33;;;;;;;;;;;12.30;99.90;;;;;;5063086;28;19948;-83
2023/05/19 05:32:00;;;;;;;;;;;12.30;99.90;;;;;;5074766;28;19931;-85
2023/05/19 05:34:27;;;;;;;;;;;12.30;99.90;;;;;;5077862;28;20350;-85
2023/05/19 05:36:54;;;;;;;;;;;12.30;99.90;;;;;;5072889;28;19924;-85
2023/05/19 05:39:20;;;;;;;;;;;12.30;99.90;;;;;;5061708;28;19980;-85
2023/05/19 05:41:47;;;;;;;;;;;12.30;99.90;;;;;;5082651;28;19943;-86
2023/05/19 05:44:13;;;;;;;;;;;12.30;99.90;;;;;;5081788;28;20311;-84
2023/05/19 05:46:40;;;;;;;;;;;12.30;99.90;;;;;;5081284;28;20469;-84
2023/05/19 05:49:07;;;;;;;;;;;12.10;99.90;;;;;;5065278;28;19920;-84
2023/05/19 05:51:34;;;;;;;;;;;12.10;99.90;;;;;;5054998;28;19921;-83
2023/05/19 05:54:01;;;;;;;;;;;11.90;99.90;;;;;;5084688;28;19921;-84
2023/05/19 05:56:28;;;;;;;;;;;11.90;99.90;;;;;;5063268;28;19924;-84
2023/05/19 05:58:55;;;;;;;;;;;11.90;99.90;;;;;;5081853;28;19946;-85
2023/05/19 06:01:22;;;;;;;;;;;11.90;99.90;;;;;;5069479;28;19927;-84
2023/05/19 06:03:49;;;;;;;;;;;11.90;99.90;;;;;;5067849;28;19921;-85
2023/05/19 06:06:16;;;;;;;;;;;11.90;99.90;;;;;;5083439;28;19920;-84
2023/05/19 06:08:43;;;;;;;;;;;11.90;99.90;;;;;;5080325;28;19982;-84
2023/05/19 06:11:09;;;;;;;;;;;11.90;99.90;;;;;;5081455;28;19920;-86
2023/05/19 06:13:37;;;;;;;;;;;11.90;99.90;;;;;;5077567;28;19928;-84
2023/05/19 06:16:04;;;;;;;;;;;11.90;99.90;;;;;;5076763;28;19946;-84
2023/05/19 06:18:31;;;;;;;;;;;12.00;99.90;;;;;;5060003;28;19952;-83
2023/05/19 06:20:58;;;;;;;;;;;12.00;99.90;;;;;;5070521;28;19920;-84
2023/05/19 06:23:25;;;;;;;;;;;12.10;99.90;;;;;;5076308;28;19942;-84
2023/05/19 06:25:52;;;;;;;;;;;12.10;99.90;;;;;;5075965;28;19924;-83
2023/05/19 06:28:19;;;;;;;;;;;12.10;99.90;;;;;;5069424;28;19927;-84
2023/05/19 06:30:45;;;;;;;;;;;12.20;99.90;;;;;;5078274;28;19920;-84
2023/05/19 06:33:12;;;;;;;;;;;12.10;99.90;;;;;;5077177;28;19943;-84
2023/05/19 06:35:39;;;;;;;;;;;12.10;99.90;;;;;;5057814;28;19920;-84
2023/05/19 06:38:05;;;;;;;;;;;12.10;99.90;;;;;;5079604;28;19928;-85
2023/05/19 06:40:32;;;;;;;;;;;12.10;99.90;;;;;;5062201;28;19920;-84
2023/05/19 06:42:59;;;;;;;;;;;12.10;99.90;;;;;;5076386;28;20062;-84
2023/05/19 06:45:26;;;;;;;;;;;12.10;99.90;;;;;;5084322;28;19994;-85
2023/05/19 06:47:53;;;;;;;;;;;12.00;99.90;;;;;;5076953;28;19927;-83
2023/05/19 06:50:20;;;;;;;;;;;12.00;99.90;;;;;;5075540;28;19920;-84
2023/05/19 06:52:47;;;;;;;;;;;12.10;99.90;;;;;;5077109;28;19925;-84
2023/05/19 06:55:13;;;;;;;;;;;12.10;99.90;;;;;;5077929;28;19924;-84
2023/05/19 06:57:40;;;;;;;;;;;12.20;99.90;;;;;;5074327;28;19920;-84
2023/05/19 07:00:13;;;;;;;;;;;12.20;99.90;;;;;;5078734;28;19921;-83
2023/05/19 07:02:56;;;;;;;;;;;12.30;99.90;;;;;;5065297;28;19921;-85
2023/05/19 07:05:22;;;;;;;;;;;12.30;99.90;;;;;;5069727;28;19927;-84
2023/05/19 07:07:49;;;;;;;;;;;12.40;99.90;;;;;;5069301;28;19925;-85
2023/05/19 07:10:16;;;;;;;;;;;12.40;99.90;;;;;;5078803;28;19928;-85
2023/05/19 07:12:42;;;;;;;;;;;12.50;99.90;;;;;;5054616;28;19925;-85
2023/05/19 07:15:09;;;;;;;;;;;12.60;99.90;;;;;;5053115;28;19921;-85
2023/05/19 07:17:36;;;;;;;;;;;12.70;99.90;;;;;;5057948;28;19920;-84
2023/05/19 07:20:05;;;;;;;;;;;12.70;99.90;;;;;;5067516;28;19927;-83
2023/05/19 07:22:35;;;;;;;;;;;12.80;99.90;;;;;;5060953;28;19909;-86
2023/05/19 07:25:02;;;;;;;;;;;12.90;99.90;;;;;;5072269;28;19931;-84
2023/05/19 07:27:29;;;;;;;;;;;12.90;99.90;;;;;;5041303;28;19955;-83
2023/05/19 07:29:55;;;;;;;;;;;12.90;99.90;;;;;;5042148;28;20403;-82
2023/05/19 07:32:22;;;;;;;;;;;12.90;99.90;;;;;;5045510;28;19921;-86
2023/05/19 07:34:49;;;;;;;;;;;13.00;99.90;;;;;;5049129;28;19924;-84
2023/05/19 07:37:16;;;;;;;;;;;13.00;99.90;;;;;;5065659;28;19924;-84
2023/05/19 07:39:42;;;;;;;;;;;13.10;99.90;;;;;;5046334;28;20301;-84
2023/05/19 07:42:09;;;;;;;;;;;13.10;99.90;;;;;;5061225;28;19921;-84
2023/05/19 07:44:36;;;;;;;;;;;13.10;99.90;;;;;;5063230;28;20296;-82
2023/05/19 07:47:02;;;;;;;;;;;13.20;99.90;;;;;;5073897;28;20596;-84
2023/05/19 07:49:29;;;;;;;;;;;13.20;99.90;;;;;;5079398;28;20011;-83
2023/05/19 07:51:56;;;;;;;;;;;13.20;99.90;;;;;;5082380;28;19987;-86
2023/05/19 07:54:22;;;;;;;;;;;13.30;99.90;;;;;;5067393;28;19916;-86
2023/05/19 07:56:49;;;;;;;;;;;13.30;99.90;;;;;;5060319;28;19929;-84
2023/05/19 07:59:16;;;;;;;;;;;13.30;99.90;;;;;;5042573;28;19921;-85
2023/05/19 08:01:42;;;;;;;;;;;13.40;99.90;;;;;;5065978;28;20388;-84
2023/05/19 08:04:10;;;;;;;;;;;13.40;99.90;;;;;;5066744;28;19928;-82
2023/05/19 08:06:38;;;;;;;;;;;13.50;99.90;;;;;;5054780;28;20391;-83
2023/05/19 08:09:05;;;;;;;;;;;13.50;99.90;;;;;;5056308;28;20597;-84
2023/05/19 08:11:32;;;;;;;;;;;13.50;99.90;;;;;;5071957;28;19928;-84
2023/05/19 08:13:59;;;;;;;;;;;13.60;99.90;;;;;;5067600;28;19929;-84
2023/05/19 08:16:25;;;;;;;;;;;13.70;99.90;;;;;;5068625;28;19924;-83
2023/05/19 08:18:53;;;;;;;;;;;13.70;99.90;;;;;;5076570;28;20372;-85
2023/05/19 08:21:20;;;;;;;;;;;13.70;99.90;;;;;;5073540;28;19927;-85
2023/05/19 08:23:47;;;;;;;;;;;13.80;99.90;;;;;;5064729;28;19967;-84
2023/05/19 08:26:14;;;;;;;;;;;13.90;99.90;;;;;;5062092;28;19959;-83
2023/05/19 08:28:40;;;;;;;;;;;13.90;99.90;;;;;;5065139;28;19925;-84
2023/05/19 08:31:07;;;;;;;;;;;14.00;99.90;;;;;;5074843;28;19964;-83
2023/05/19 08:33:34;;;;;;;;;;;14.10;99.90;;;;;;5059800;28;20007;-82
2023/05/19 08:36:00;;;;;;;;;;;14.10;99.90;;;;;;5077672;28;19951;-85
2023/05/19 08:38:27;;;;;;;;;;;14.20;99.90;;;;;;5059242;28;19920;-84
2023/05/19 08:40:54;;;;;;;;;;;14.20;99.90;;;;;;5068814;28;19920;-84
2023/05/19 08:43:21;;;;;;;;;;;14.20;99.90;;;;;;5069609;28;19956;-85
2023/05/19 08:45:48;;;;;;;;;;;14.30;99.90;;;;;;5075857;28;19924;-85
2023/05/19 08:48:15;;;;;;;;;;;14.30;99.90;;;;;;5074428;28;19920;-86
2023/05/19 08:50:46;;;;;;;;;;;14.40;99.90;;;;;;5060349;28;19905;-84
2023/05/19 08:53:18;;;;;;;;;;;14.40;99.90;;;;;;5077580;28;19905;-88
2023/05/19 08:56:09;;;;;;;;;;;14.50;99.90;;;;;;5049487;28;19921;-84
2023/05/19 08:58:40;;;;;;;;;;;14.60;99.90;;;;;;5058947;28;19927;-84
2023/05/19 09:01:07;;;;;;;;;;;14.80;99.90;;;;;;5042532;28;19921;-83
2023/05/19 09:03:37;;;;;;;;;;;14.90;99.90;;;;;;5065664;28;19936;-85
2023/05/19 09:06:05;;;;;;;;;;;15.10;99.90;;;;;;5057085;28;19946;-85
2023/05/19 09:08:33;;;;;;;;;;;15.20;99.90;;;;;;5063090;28;20375;-85
2023/05/19 09:10:59;;;;;;;;;;;15.30;99.90;;;;;;5064580;28;19948;-82
2023/05/19 09:13:26;;;;;;;;;;;15.40;99.90;;;;;;5061913;28;19920;-85
2023/05/19 09:15:55;;;;;;;;;;;15.50;99.90;;;;;;5072461;28;19974;-85
2023/05/19 09:18:22;;;;;;;;;;;15.60;99.90;;;;;;5068546;28;19920;-85
2023/05/19 09:20:49;;;;;;;;;;;15.60;99.90;;;;;;5050634;28;20395;-84
2023/05/19 09:23:17;;;;;;;;;;;15.70;99.90;;;;;;5064699;28;20305;-83
2023/05/19 09:25:48;;;;;;;;;;;15.70;99.90;;;;;;5046393;28;19963;-84
2023/05/19 09:28:22;;;;;;;;;;;15.80;99.90;;;;;;5039888;28;19924;-84
2023/05/19 09:30:57;;;;;;;;;;;15.80;99.90;;;;;;5049849;28;19924;-85
2023/05/19 09:33:23;;;;;;;;;;;15.90;99.90;;;;;;5068995;28;19987;-83
2023/05/19 09:35:50;;;;;;;;;;;16.10;99.90;;;;;;5049931;28;19978;-84
2023/05/19 09:38:18;;;;;;;;;;;16.20;99.90;;;;;;5066022;28;19946;-85
2023/05/19 09:40:47;;;;;;;;;;;16.30;99.90;;;;;;5063817;28;19990;-84
2023/05/19 09:43:13;;;;;;;;;;;16.30;99.90;;;;;;5059271;28;19967;-82
2023/05/19 09:45:40;;;;;;;;;;;16.40;99.90;;;;;;5050330;28;20019;-84
2023/05/19 09:48:07;;;;;;;;;;;16.50;99.90;;;;;;5063330;28;19928;-85
2023/05/19 09:50:34;;;;;;;;;;;16.50;99.90;;;;;;5062584;28;19920;-84
2023/05/19 09:53:02;;;;;;;;;;;16.50;99.90;;;;;;5039287;28;19926;-84
2023/05/19 09:55:31;;;;;;;;;;;16.60;99.90;;;;;;5042550;28;20020;-83
2023/05/19 09:58:00;;;;;;;;;;;16.60;99.90;;;;;;5041962;28;20015;-84
2023/05/19 10:00:27;;;;;;;;;;;16.60;99.90;;;;;;5051981;28;19924;-85
2023/05/19 10:02:54;;;;;;;;;;;16.70;99.90;;;;;;5064681;28;20492;-85
2023/05/19 10:05:22;;;;;;;;;;;16.90;99.90;;;;;;5046502;28;20283;-83
2023/05/19 10:07:51;;;;;;;;;;;17.00;99.90;;;;;;5052200;28;19921;-85
2023/05/19 10:10:20;;;;;;;;;;;17.10;99.90;;;;;;5056707;28;20300;-84
2023/05/19 10:12:47;;;;;;;;;;;17.10;99.90;;;;;;5037851;28;20383;-85
2023/05/19 10:15:15;;;;;;;;;;;17.10;99.90;;;;;;5063122;28;19967;-85
2023/05/19 10:17:42;;;;;;;;;;;17.10;99.90;;;;;;5064247;28;19920;-82
2023/05/19 10:20:11;;;;;;;;;;;17.20;99.90;;;;;;5065703;28;19963;-85
2023/05/19 10:22:38;;;;;;;;;;;17.20;99.90;;;;;;5048347;28;19924;-84
2023/05/19 10:25:05;;;;;;;;;;;17.10;99.90;;;;;;5054834;28;19974;-84
2023/05/19 10:27:34;;;;;;;;;;;17.10;99.90;;;;;;5036894;28;20458;-84
2023/05/19 10:30:08;;;;;;;;;;;17.20;99.90;;;;;;5072825;28;19920;-85
2023/05/19 10:32:39;;;;;;;;;;;17.30;99.90;;;;;;5055838;28;19921;-86
2023/05/19 10:35:09;;;;;;;;;;;17.40;99.90;;;;;;5069957;28;19920;-85
2023/05/19 10:37:38;;;;;;;;;;;17.40;99.90;;;;;;5037574;28;20323;-85
2023/05/19 10:40:08;;;;;;;;;;;17.50;99.90;;;;;;5058947;28;19929;-85
2023/05/19 10:42:39;;;;;;;;;;;17.50;99.90;;;;;;5051728;28;19921;-84
2023/05/19 10:45:12;;;;;;;;;;;17.50;99.90;;;;;;5049958;28;19929;-85
2023/05/19 10:47:42;;;;;;;;;;;17.70;99.90;;;;;;5058054;28;19920;-84
2023/05/19 10:50:09;;;;;;;;;;;17.70;99.90;;;;;;5063266;28;20368;-83
2023/05/19 10:52:37;;;;;;;;;;;17.70;99.90;;;;;;5055776;28;19993;-84
2023/05/19 10:55:07;;;;;;;;;;;17.80;99.90;;;;;;5056806;28;19966;-85
2023/05/19 10:57:34;;;;;;;;;;;17.90;99.90;;;;;;5047343;28;19943;-85
2023/05/19 11:00:10;;;;;;;;;;;18.00;99.90;;;;;;5056521;28;19968;-83
2023/05/19 11:02:40;;;;;;;;;;;18.00;99.90;;;;;;5042062;28;19921;-84
2023/05/19 11:05:08;;;;;;;;;;;17.90;99.90;;;;;;5044326;28;20358;-83
2023/05/19 11:07:35;;;;;;;;;;;17.80;99.90;;;;;;5044562;28;20296;-84
2023/05/19 11:10:08;;;;;;;;;;;17.80;99.90;;;;;;5040281;28;19927;-84
2023/05/19 11:12:43;;;;;;;;;;;17.90;99.90;;;;;;5055245;28;19972;-85
2023/05/19 11:15:10;;;;;;;;;;;17.90;99.90;;;;;;5049094;28;20354;-82
2023/05/19 11:17:38;;;;;;;;;;;17.90;99.90;;;;;;5046682;28;19999;-84
2023/05/19 11:20:06;;;;;;;;;;;17.90;99.90;;;;;;5068249;28;20047;-86
2023/05/19 11:22:35;;;;;;;;;;;17.80;99.90;;;;;;5037969;28;19920;-85
2023/05/19 11:25:02;;;;;;;;;;;17.90;99.90;;;;;;5065896;28;19978;-85
2023/05/19 11:27:33;;;;;;;;;;;17.80;99.90;;;;;;5058535;28;19921;-85
2023/05/19 11:30:00;;;;;;;;;;;17.80;99.90;;;;;;5071017;28;20384;-85
2023/05/19 11:32:29;;;;;;;;;;;17.90;99.90;;;;;;5064669;28;19921;-84
2023/05/19 11:34:56;;;;;;;;;;;18.00;99.90;;;;;;5066337;28;19977;-84
2023/05/19 11:37:23;;;;;;;;;;;18.20;99.90;;;;;;5062500;28;19920;-84
2023/05/19 11:39:50;;;;;;;;;;;18.20;99.90;;;;;;5043411;28;19921;-86
2023/05/19 11:42:17;;;;;;;;;;;18.30;99.90;;;;;;5061630;28;20011;-84
2023/05/19 11:44:47;;;;;;;;;;;18.30;99.90;;;;;;5069757;28;19920;-84
2023/05/19 11:47:14;;;;;;;;;;;18.30;99.90;;;;;;5065021;28;19921;-85
2023/05/19 11:49:44;;;;;;;;;;;18.30;99.90;;;;;;5058005;28;19970;-84
2023/05/19 11:52:11;;;;;;;;;;;18.40;99.90;;;;;;5064357;28;19981;-85
2023/05/19 11:54:40;;;;;;;;;;;18.60;99.90;;;;;;5062243;28;19956;-84
2023/05/19 11:57:07;;;;;;;;;;;18.70;99.90;;;;;;5040029;28;20023;-85
2023/05/19 11:59:35;;;;;;;;;;;18.80;99.90;;;;;;5065892;28;19920;-83
2023/05/19 12:02:13;;;;;;;;;;;19.00;99.90;;;;;;5063845;28;19921;-83
2023/05/19 12:04:39;;;;;;;;;;;18.90;99.90;;;;;;5065736;28;19920;-83
2023/05/19 12:07:07;;;;;;;;;;;18.80;99.90;;;;;;5064349;28;20000;-82
2023/05/19 12:09:33;;;;;;;;;;;18.80;99.90;;;;;;5062470;28;19920;-82
2023/05/19 12:12:01;;;;;;;;;;;18.70;99.90;;;;;;5053927;28;20372;-82
2023/05/19 12:14:29;;;;;;;;;;;18.70;99.90;;;;;;5066639;28;19987;-83
2023/05/19 12:16:56;;;;;;;;;;;18.60;99.90;;;;;;5053949;28;19970;-86
2023/05/19 12:19:24;;;;;;;;;;;18.40;99.90;;;;;;5068686;28;19983;-85
2023/05/19 12:21:52;;;;;;;;;;;18.50;99.90;;;;;;5054009;28;19924;-86
2023/05/19 12:24:19;;;;;;;;;;;18.50;99.90;;;;;;5040526;28;19928;-82
2023/05/19 12:26:46;;;;;;;;;;;18.70;99.90;;;;;;5041555;28;19920;-85
2023/05/19 12:29:12;;;;;;;;;;;18.70;99.90;;;;;;5068921;28;19960;-84
2023/05/19 12:31:39;;;;;;;;;;;18.80;99.90;;;;;;5067372;28;19920;-83
2023/05/19 12:34:06;;;;;;;;;;;18.70;99.90;;;;;;5046403;28;19927;-85
2023/05/19 12:36:33;;;;;;;;;;;18.70;99.90;;;;;;5063562;28;19921;-85
2023/05/19 12:38:59;;;;;;;;;;;18.80;99.90;;;;;;5066218;28;20412;-83
2023/05/19 12:41:27;;;;;;;;;;;18.90;99.90;;;;;;5061609;28;19927;-85
2023/05/19 12:43:54;;;;;;;;;;;19.00;99.90;;;;;;5062109;28;20010;-85
2023/05/19 12:46:21;;;;;;;;;;;19.20;99.90;;;;;;5050319;28;19967;-85
2023/05/19 12:48:48;;;;;;;;;;;19.30;99.90;;;;;;5068189;28;19927;-84
2023/05/19 12:51:16;;;;;;;;;;;19.30;99.90;;;;;;5064999;28;19925;-85
2023/05/19 12:53:43;;;;;;;;;;;19.40;99.90;;;;;;5042049;28;19927;-83
2023/05/19 12:56:11;;;;;;;;;;;19.30;99.90;;;;;;5060375;28;20319;-85
2023/05/19 12:58:38;;;;;;;;;;;19.30;99.90;;;;;;5056743;28;20418;-85
2023/05/19 13:01:06;;;;;;;;;;;19.30;99.90;;;;;;5043391;28;19954;-85
2023/05/19 13:03:38;;;;;;;;;;;19.30;99.90;;;;;;5059781;28;19920;-82
2023/05/19 13:06:05;;;;;;;;;;;19.30;99.90;;;;;;5060842;28;20420;-85
2023/05/19 13:08:32;;;;;;;;;;;19.30;99.90;;;;;;5062208;28;19978;-85
2023/05/19 13:10:59;;;;;;;;;;;19.20;99.90;;;;;;5066690;28;19924;-84
2023/05/19 13:13:26;;;;;;;;;;;19.10;99.90;;;;;;5071941;28;19928;-83
2023/05/19 13:15:52;;;;;;;;;;;19.00;99.90;;;;;;5054792;28;19969;-85
2023/05/19 13:18:19;;;;;;;;;;;19.00;99.90;;;;;;5066562;28;19975;-82
2023/05/19 13:20:47;;;;;;;;;;;18.90;99.90;;;;;;5066325;28;20051;-84
2023/05/19 13:23:14;;;;;;;;;;;18.70;99.90;;;;;;5041439;28;19920;-83
2023/05/19 13:25:41;;;;;;;;;;;18.70;99.90;;;;;;5044024;28;19921;-83
2023/05/19 13:28:08;;;;;;;;;;;18.70;99.90;;;;;;5056068;28;19942;-85
2023/05/19 13:30:36;;;;;;;;;;;18.60;99.90;;;;;;5073104;28;20011;-85
2023/05/19 13:33:03;;;;;;;;;;;18.60;99.90;;;;;;5061679;28;19927;-85
2023/05/19 13:35:35;;;;;;;;;;;18.60;99.90;;;;;;5049848;28;19987;-85
2023/05/19 13:38:04;;;;;;;;;;;18.70;99.90;;;;;;5063622;28;19967;-83
2023/05/19 13:40:33;;;;;;;;;;;18.80;99.90;;;;;;5053864;28;19975;-85
2023/05/19 13:43:01;;;;;;;;;;;18.70;99.90;;;;;;5045513;28;19982;-85
2023/05/19 13:45:27;;;;;;;;;;;18.80;99.90;;;;;;5069798;28;19925;-83
2023/05/19 13:47:54;;;;;;;;;;;18.80;99.90;;;;;;5065303;28;19944;-83
2023/05/19 13:50:21;;;;;;;;;;;18.80;99.90;;;;;;5045872;28;19921;-85
2023/05/19 13:52:48;;;;;;;;;;;18.70;99.90;;;;;;5057932;28;20010;-85
2023/05/19 13:55:15;;;;;;;;;;;18.70;99.90;;;;;;5049963;28;19928;-84
2023/05/19 13:57:41;;;;;;;;;;;18.70;99.90;;;;;;5065705;28;19970;-85
2023/05/19 14:00:10;;;;;;;;;;;18.70;99.90;;;;;;5053449;28;19976;-85
2023/05/19 14:02:36;;;;;;;;;;;18.70;99.90;;;;;;5070060;28;20579;-84
2023/05/19 14:05:04;;;;;;;;;;;18.80;99.90;;;;;;5069684;28;19927;-84
2023/05/19 14:07:33;;;;;;;;;;;18.80;99.90;;;;;;5049882;28;19920;-85
2023/05/19 14:10:00;;;;;;;;;;;18.60;99.90;;;;;;5047772;28;20333;-85
2023/05/19 14:12:27;;;;;;;;;;;18.50;99.90;;;;;;5063415;28;19963;-84
2023/05/19 14:15:09;;;;;;;;;;;18.50;99.90;;;;;;5050536;28;19920;-84
2023/05/19 14:17:37;;;;;;;;;;;18.40;99.90;;;;;;5073871;28;19924;-83
2023/05/19 14:20:04;;;;;;;;;;;18.40;99.90;;;;;;5067436;28;19946;-86